sensor_id;sensor_type;location;lat;lon;timestamp;temperature;humidity
66013;DHT22;52783;50.502;8.190;2024-03-06T00:00:25;6.80;99.90
66013;DHT22;52783;50.502;8.190;2024-03-06T00:02:51;6.80;99.90
66013;DHT22;52783;50.502;8.190;2024-03-06T00:05:17;6.70;99.90
66013;DHT22;52783;50.502;8.190;2024-03-06T00:07:42;6.70;99.90
66013;DHT22;52783;50.502;8.190;2024-03-06T00:10:08;6.70;99.90
66013;DHT22;52783;50.502;8.190;2024-03-06T00:12:34;6.70;99.90
66013;DHT22;52783;50.502;8.190;2024-03-06T00:15:00;6.70;99.90
66013;DHT22;52783;50.502;8.190;2024-03-06T00:17:25;6.70;99.90
66013;DHT22;52783;50.502;8.190;2024-03-06T00:19:51;6.70;99.90
66013;DHT22;52783;50.502;8.190;2024-03-06T00:22:16;6.70;99.90
66013;DHT22;52783;50.502;8.190;2024-03-06T00:24:42;6.80;99.90
66013;DHT22;52783;50.502;8.190;2024-03-06T00:27:08;6.80;99.90
66013;DHT22;52783;50.502;8.190;2024-03-06T00:29:34;6.80;99.90
66013;DHT22;52783;50.502;8.190;2024-03-06T00:32:03;6.80;99.90
66013;DHT22;52783;50.502;8.190;2024-03-06T00:34:29;6.70;99.90
66013;DHT22;52783;50.502;8.190;2024-03-06T00:36:54;6.70;99.90
66013;DHT22;52783;50.502;8.190;2024-03-06T00:39:20;6.70;99.90
66013;DHT22;52783;50.502;8.190;2024-03-06T00:41:45;6.60;99.90
66013;DHT22;52783;50.502;8.190;2024-03-06T00:44:11;6.70;99.90
66013;DHT22;52783;50.502;8.190;2024-03-06T00:46:36;6.60;99.90
66013;DHT22;52783;50.502;8.190;2024-03-06T00:49:02;6.70;99.90
66013;DHT22;52783;50.502;8.190;2024-03-06T00:51:27;6.70;99.90
66013;DHT22;52783;50.502;8.190;2024-03-06T00:53:53;6.70;99.90
66013;DHT22;52783;50.502;8.190;2024-03-06T00:56:18;6.60;99.90
66013;DHT22;52783;50.502;8.190;2024-03-06T00:58:44;6.60;99.90
66013;DHT22;52783;50.502;8.190;2024-03-06T01:01:10;6.60;99.90
66013;DHT22;52783;50.502;8.190;2024-03-06T01:03:37;6.60;99.90
66013;DHT22;52783;50.502;8.190;2024-03-06T01:06:03;6.60;99.90
66013;DHT22;52783;50.502;8.190;2024-03-06T01:08:28;6.70;99.90
66013;DHT22;52783;50.502;8.190;2024-03-06T01:10:55;6.60;99.90
66013;DHT22;52783;50.502;8.190;2024-03-06T01:13:21;6.60;99.90
66013;DHT22;52783;50.502;8.190;2024-03-06T01:15:47;6.60;99.90
66013;DHT22;52783;50.502;8.190;2024-03-06T01:18:12;6.60;99.90
66013;DHT22;52783;50.502;8.190;2024-03-06T01:20:38;6.70;99.90
66013;DHT22;52783;50.502;8.190;2024-03-06T01:23:04;6.60;99.90
66013;DHT22;52783;50.502;8.190;2024-03-06T01:25:29;6.60;99.90
66013;DHT22;52783;50.502;8.190;2024-03-06T01:27:55;6.70;99.90
66013;DHT22;52783;50.502;8.190;2024-03-06T01:30:21;6.70;99.90
66013;DHT22;52783;50.502;8.190;2024-03-06T01:32:46;6.60;99.90
66013;DHT22;52783;50.502;8.190;2024-03-06T01:35:12;6.70;99.90
66013;DHT22;52783;50.502;8.190;2024-03-06T01:37:37;6.70;99.90
66013;DHT22;52783;50.502;8.190;2024-03-06T01:40:03;6.70;99.90
66013;DHT22;52783;50.502;8.190;2024-03-06T01:42:32;6.70;99.90
66013;DHT22;52783;50.502;8.190;2024-03-06T01:44:58;6.70;99.90
66013;DHT22;52783;50.502;8.190;2024-03-06T01:47:24;6.70;99.90
66013;DHT22;52783;50.502;8.190;2024-03-06T01:49:50;6.70;99.90
66013;DHT22;52783;50.502;8.190;2024-03-06T01:52:16;6.70;99.90
66013;DHT22;52783;50.502;8.190;2024-03-06T01:54:43;6.80;99.90
66013;DHT22;52783;50.502;8.190;2024-03-06T01:57:10;6.70;99.90
66013;DHT22;52783;50.502;8.190;2024-03-06T01:59:36;6.70;99.90
66013;DHT22;52783;50.502;8.190;2024-03-06T02:02:03;6.70;99.90
66013;DHT22;52783;50.502;8.190;2024-03-06T02:04:29;6.70;99.90
66013;DHT22;52783;50.502;8.190;2024-03-06T02:06:56;6.60;99.90
66013;DHT22;52783;50.502;8.190;2024-03-06T02:09:21;6.60;99.90
66013;DHT22;52783;50.502;8.190;2024-03-06T02:11:48;6.50;99.90
66013;DHT22;52783;50.502;8.190;2024-03-06T02:14:15;6.60;99.90
66013;DHT22;52783;50.502;8.190;2024-03-06T02:16:42;6.50;99.90
66013;DHT22;52783;50.502;8.190;2024-03-06T02:19:08;6.50;99.90
66013;DHT22;52783;50.502;8.190;2024-03-06T02:21:34;6.40;99.90
66013;DHT22;52783;50.502;8.190;2024-03-06T02:24:00;6.40;99.90
66013;DHT22;52783;50.502;8.190;2024-03-06T02:26:26;6.40;99.90
66013;DHT22;52783;50.502;8.190;2024-03-06T02:28:53;6.40;99.90
66013;DHT22;52783;50.502;8.190;2024-03-06T02:31:19;6.40;99.90
66013;DHT22;52783;50.502;8.190;2024-03-06T02:33:48;6.30;99.90
66013;DHT22;52783;50.502;8.190;2024-03-06T02:36:18;6.30;99.90
66013;DHT22;52783;50.502;8.190;2024-03-06T02:38:44;6.20;99.90
66013;DHT22;52783;50.502;8.190;2024-03-06T02:41:11;6.30;99.90
66013;DHT22;52783;50.502;8.190;2024-03-06T02:43:37;6.20;99.90
66013;DHT22;52783;50.502;8.190;2024-03-06T02:46:03;6.30;99.90
66013;DHT22;52783;50.502;8.190;2024-03-06T02:48:29;6.30;99.90
66013;DHT22;52783;50.502;8.190;2024-03-06T02:50:56;6.30;99.90
66013;DHT22;52783;50.502;8.190;2024-03-06T02:53:21;6.30;99.90
66013;DHT22;52783;50.502;8.190;2024-03-06T02:55:47;6.20;99.90
66013;DHT22;52783;50.502;8.190;2024-03-06T02:58:13;6.20;99.90
66013;DHT22;52783;50.502;8.190;2024-03-06T03:00:45;6.20;99.90
66013;DHT22;52783;50.502;8.190;2024-03-06T03:03:10;6.30;99.90
66013;DHT22;52783;50.502;8.190;2024-03-06T03:05:39;6.20;99.90
66013;DHT22;52783;50.502;8.190;2024-03-06T03:08:06;6.20;99.90
66013;DHT22;52783;50.502;8.190;2024-03-06T03:10:31;6.20;99.90
66013;DHT22;52783;50.502;8.190;2024-03-06T03:12:57;6.20;99.90
66013;DHT22;52783;50.502;8.190;2024-03-06T03:15:22;6.30;99.90
66013;DHT22;52783;50.502;8.190;2024-03-06T03:17:48;6.30;99.90
66013;DHT22;52783;50.502;8.190;2024-03-06T03:20:13;6.30;99.90
66013;DHT22;52783;50.502;8.190;2024-03-06T03:22:42;6.30;99.90
66013;DHT22;52783;50.502;8.190;2024-03-06T03:25:09;6.30;99.90
66013;DHT22;52783;50.502;8.190;2024-03-06T03:27:36;6.30;99.90
66013;DHT22;52783;50.502;8.190;2024-03-06T03:30:02;6.40;99.90
66013;DHT22;52783;50.502;8.190;2024-03-06T03:32:28;6.40;99.90
66013;DHT22;52783;50.502;8.190;2024-03-06T03:34:54;6.30;99.90
66013;DHT22;52783;50.502;8.190;2024-03-06T03:37:19;6.40;99.90
66013;DHT22;52783;50.502;8.190;2024-03-06T03:39:45;6.40;99.90
66013;DHT22;52783;50.502;8.190;2024-03-06T03:42:11;6.40;99.90
66013;DHT22;52783;50.502;8.190;2024-03-06T03:44:36;6.40;99.90
66013;DHT22;52783;50.502;8.190;2024-03-06T03:47:02;6.40;99.90
66013;DHT22;52783;50.502;8.190;2024-03-06T03:49:28;6.50;99.90
66013;DHT22;52783;50.502;8.190;2024-03-06T03:51:53;6.50;99.90
66013;DHT22;52783;50.502;8.190;2024-03-06T03:54:19;6.40;99.90
66013;DHT22;52783;50.502;8.190;2024-03-06T03:56:44;6.30;99.90
66013;DHT22;52783;50.502;8.190;2024-03-06T03:59:10;6.40;99.90
66013;DHT22;52783;50.502;8.190;2024-03-06T04:01:36;6.20;99.90
66013;DHT22;52783;50.502;8.190;2024-03-06T04:04:01;6.20;99.90
66013;DHT22;52783;50.502;8.190;2024-03-06T04:06:27;6.10;99.90
66013;DHT22;52783;50.502;8.190;2024-03-06T04:08:53;6.10;99.90
66013;DHT22;52783;50.502;8.190;2024-03-06T04:11:18;6.10;99.90
66013;DHT22;52783;50.502;8.190;2024-03-06T04:13:44;6.10;99.90
66013;DHT22;52783;50.502;8.190;2024-03-06T04:16:09;6.10;99.90
66013;DHT22;52783;50.502;8.190;2024-03-06T04:18:35;6.00;99.90
66013;DHT22;52783;50.502;8.190;2024-03-06T04:21:07;5.80;99.90
66013;DHT22;52783;50.502;8.190;2024-03-06T04:23:34;5.60;99.90
66013;DHT22;52783;50.502;8.190;2024-03-06T04:26:00;5.60;99.90
66013;DHT22;52783;50.502;8.190;2024-03-06T04:28:26;5.40;99.90
66013;DHT22;52783;50.502;8.190;2024-03-06T04:30:52;5.30;99.90
66013;DHT22;52783;50.502;8.190;2024-03-06T04:33:17;5.40;99.90
66013;DHT22;52783;50.502;8.190;2024-03-06T04:35:43;5.50;99.90
66013;DHT22;52783;50.502;8.190;2024-03-06T04:38:08;5.50;99.90
66013;DHT22;52783;50.502;8.190;2024-03-06T04:40:34;5.50;99.90
66013;DHT22;52783;50.502;8.190;2024-03-06T04:43:00;5.50;99.90
66013;DHT22;52783;50.502;8.190;2024-03-06T04:45:26;5.40;99.90
66013;DHT22;52783;50.502;8.190;2024-03-06T04:47:53;5.40;99.90
66013;DHT22;52783;50.502;8.190;2024-03-06T04:50:19;5.40;99.90
66013;DHT22;52783;50.502;8.190;2024-03-06T04:52:44;5.30;99.90
66013;DHT22;52783;50.502;8.190;2024-03-06T04:55:10;5.30;99.90
66013;DHT22;52783;50.502;8.190;2024-03-06T04:57:37;5.30;99.90
66013;DHT22;52783;50.502;8.190;2024-03-06T05:00:02;5.10;99.90
66013;DHT22;52783;50.502;8.190;2024-03-06T05:02:31;5.00;99.90
66013;DHT22;52783;50.502;8.190;2024-03-06T05:04:59;5.10;99.90
66013;DHT22;52783;50.502;8.190;2024-03-06T05:07:27;5.00;99.90
66013;DHT22;52783;50.502;8.190;2024-03-06T05:09:52;4.80;99.90
66013;DHT22;52783;50.502;8.190;2024-03-06T05:12:18;4.90;99.90
66013;DHT22;52783;50.502;8.190;2024-03-06T05:14:43;4.70;99.90
66013;DHT22;52783;50.502;8.190;2024-03-06T05:17:09;4.80;99.90
66013;DHT22;52783;50.502;8.190;2024-03-06T05:19:36;4.80;99.90
66013;DHT22;52783;50.502;8.190;2024-03-06T05:22:01;4.80;99.90
66013;DHT22;52783;50.502;8.190;2024-03-06T05:24:27;4.80;99.90
66013;DHT22;52783;50.502;8.190;2024-03-06T05:26:53;4.70;99.90
66013;DHT22;52783;50.502;8.190;2024-03-06T05:29:18;4.80;99.90
66013;DHT22;52783;50.502;8.190;2024-03-06T05:31:44;4.80;99.90
66013;DHT22;52783;50.502;8.190;2024-03-06T05:34:09;4.70;99.90
66013;DHT22;52783;50.502;8.190;2024-03-06T05:36:35;4.70;99.90
66013;DHT22;52783;50.502;8.190;2024-03-06T05:39:01;4.70;99.90
66013;DHT22;52783;50.502;8.190;2024-03-06T05:41:26;4.70;99.90
66013;DHT22;52783;50.502;8.190;2024-03-06T05:43:52;4.40;99.90
66013;DHT22;52783;50.502;8.190;2024-03-06T05:46:17;4.60;99.90
66013;DHT22;52783;50.502;8.190;2024-03-06T05:48:44;4.60;99.90
66013;DHT22;52783;50.502;8.190;2024-03-06T05:51:10;4.50;99.90
66013;DHT22;52783;50.502;8.190;2024-03-06T05:53:36;4.50;99.90
66013;DHT22;52783;50.502;8.190;2024-03-06T05:56:05;4.50;99.90
66013;DHT22;52783;50.502;8.190;2024-03-06T05:58:31;4.50;99.90
66013;DHT22;52783;50.502;8.190;2024-03-06T06:00:56;4.50;99.90
66013;DHT22;52783;50.502;8.190;2024-03-06T06:03:22;4.40;99.90
66013;DHT22;52783;50.502;8.190;2024-03-06T06:05:47;4.50;99.90
66013;DHT22;52783;50.502;8.190;2024-03-06T06:08:13;4.50;99.90
66013;DHT22;52783;50.502;8.190;2024-03-06T06:10:39;4.50;99.90
66013;DHT22;52783;50.502;8.190;2024-03-06T06:13:04;4.50;99.90
66013;DHT22;52783;50.502;8.190;2024-03-06T06:15:30;4.40;99.90
66013;DHT22;52783;50.502;8.190;2024-03-06T06:17:55;4.30;99.90
66013;DHT22;52783;50.502;8.190;2024-03-06T06:20:21;4.30;99.90
66013;DHT22;52783;50.502;8.190;2024-03-06T06:22:47;4.40;99.90
66013;DHT22;52783;50.502;8.190;2024-03-06T06:25:12;4.50;99.90
66013;DHT22;52783;50.502;8.190;2024-03-06T06:27:38;4.60;99.90
66013;DHT22;52783;50.502;8.190;2024-03-06T06:30:04;4.60;99.90
66013;DHT22;52783;50.502;8.190;2024-03-06T06:32:30;4.70;99.90
66013;DHT22;52783;50.502;8.190;2024-03-06T06:34:56;4.70;99.90
66013;DHT22;52783;50.502;8.190;2024-03-06T06:37:22;4.70;99.90
66013;DHT22;52783;50.502;8.190;2024-03-06T06:39:47;4.80;99.90
66013;DHT22;52783;50.502;8.190;2024-03-06T06:42:13;4.80;99.90
66013;DHT22;52783;50.502;8.190;2024-03-06T06:44:39;4.90;99.90
66013;DHT22;52783;50.502;8.190;2024-03-06T06:47:04;4.90;99.90
66013;DHT22;52783;50.502;8.190;2024-03-06T06:49:30;5.00;99.90
66013;DHT22;52783;50.502;8.190;2024-03-06T06:51:55;5.00;99.90
66013;DHT22;52783;50.502;8.190;2024-03-06T06:54:21;5.10;99.90
66013;DHT22;52783;50.502;8.190;2024-03-06T06:56:46;5.20;99.90
66013;DHT22;52783;50.502;8.190;2024-03-06T06:59:12;5.20;99.90
66013;DHT22;52783;50.502;8.190;2024-03-06T07:01:38;5.20;99.90
66013;DHT22;52783;50.502;8.190;2024-03-06T07:04:06;5.20;99.90
66013;DHT22;52783;50.502;8.190;2024-03-06T07:06:31;5.30;99.90
66013;DHT22;52783;50.502;8.190;2024-03-06T07:08:57;5.30;99.90
66013;DHT22;52783;50.502;8.190;2024-03-06T07:11:22;5.40;99.90
66013;DHT22;52783;50.502;8.190;2024-03-06T07:13:49;5.50;99.90
66013;DHT22;52783;50.502;8.190;2024-03-06T07:16:14;5.50;99.90
66013;DHT22;52783;50.502;8.190;2024-03-06T07:18:40;5.60;99.90
66013;DHT22;52783;50.502;8.190;2024-03-06T07:21:06;5.70;99.90
66013;DHT22;52783;50.502;8.190;2024-03-06T07:23:31;5.70;99.90
66013;DHT22;52783;50.502;8.190;2024-03-06T07:25:57;5.80;99.90
66013;DHT22;52783;50.502;8.190;2024-03-06T07:28:24;5.80;99.90
66013;DHT22;52783;50.502;8.190;2024-03-06T07:30:51;5.90;99.90
66013;DHT22;52783;50.502;8.190;2024-03-06T07:33:16;5.90;99.90
66013;DHT22;52783;50.502;8.190;2024-03-06T07:35:42;5.90;99.90
66013;DHT22;52783;50.502;8.190;2024-03-06T07:38:07;5.90;99.90
66013;DHT22;52783;50.502;8.190;2024-03-06T07:40:33;6.00;99.90
66013;DHT22;52783;50.502;8.190;2024-03-06T07:42:59;5.60;99.90
66013;DHT22;52783;50.502;8.190;2024-03-06T07:45:25;5.40;99.90
66013;DHT22;52783;50.502;8.190;2024-03-06T07:47:51;5.70;99.90
66013;DHT22;52783;50.502;8.190;2024-03-06T07:50:17;5.90;99.90
66013;DHT22;52783;50.502;8.190;2024-03-06T07:52:46;5.90;99.90
66013;DHT22;52783;50.502;8.190;2024-03-06T07:55:12;5.80;99.90
66013;DHT22;52783;50.502;8.190;2024-03-06T07:57:37;5.80;99.90
66013;DHT22;52783;50.502;8.190;2024-03-06T08:00:04;6.00;99.90
66013;DHT22;52783;50.502;8.190;2024-03-06T08:02:40;6.10;99.90
66013;DHT22;52783;50.502;8.190;2024-03-06T08:05:10;6.20;99.90
66013;DHT22;52783;50.502;8.190;2024-03-06T08:07:40;6.30;99.90
66013;DHT22;52783;50.502;8.190;2024-03-06T08:10:10;6.50;99.90
66013;DHT22;52783;50.502;8.190;2024-03-06T08:12:40;6.50;99.90
66013;DHT22;52783;50.502;8.190;2024-03-06T08:15:07;6.40;99.90
66013;DHT22;52783;50.502;8.190;2024-03-06T08:17:35;6.60;99.90
66013;DHT22;52783;50.502;8.190;2024-03-06T08:20:02;6.40;99.90
66013;DHT22;52783;50.502;8.190;2024-03-06T08:22:28;6.40;99.90
66013;DHT22;52783;50.502;8.190;2024-03-06T08:24:54;6.50;99.90
66013;DHT22;52783;50.502;8.190;2024-03-06T08:27:20;6.50;99.90
66013;DHT22;52783;50.502;8.190;2024-03-06T08:29:46;6.50;99.90
66013;DHT22;52783;50.502;8.190;2024-03-06T08:32:11;6.60;99.90
66013;DHT22;52783;50.502;8.190;2024-03-06T08:34:36;6.70;99.90
66013;DHT22;52783;50.502;8.190;2024-03-06T08:37:02;6.50;99.90
66013;DHT22;52783;50.502;8.190;2024-03-06T08:39:27;6.30;99.90
66013;DHT22;52783;50.502;8.190;2024-03-06T08:41:54;6.60;99.90
66013;DHT22;52783;50.502;8.190;2024-03-06T08:44:19;6.80;99.90
66013;DHT22;52783;50.502;8.190;2024-03-06T08:46:45;6.80;99.90
66013;DHT22;52783;50.502;8.190;2024-03-06T08:49:11;6.80;99.90
66013;DHT22;52783;50.502;8.190;2024-03-06T08:51:36;6.90;99.90
66013;DHT22;52783;50.502;8.190;2024-03-06T08:54:02;7.00;99.90
66013;DHT22;52783;50.502;8.190;2024-03-06T08:56:28;7.00;99.90
66013;DHT22;52783;50.502;8.190;2024-03-06T08:58:53;6.90;99.90
66013;DHT22;52783;50.502;8.190;2024-03-06T09:01:19;6.90;99.90
66013;DHT22;52783;50.502;8.190;2024-03-06T09:03:44;7.00;99.90
66013;DHT22;52783;50.502;8.190;2024-03-06T09:06:10;7.10;99.90
66013;DHT22;52783;50.502;8.190;2024-03-06T09:08:36;7.10;99.90
66013;DHT22;52783;50.502;8.190;2024-03-06T09:11:01;7.30;99.90
66013;DHT22;52783;50.502;8.190;2024-03-06T09:13:27;7.40;99.90
66013;DHT22;52783;50.502;8.190;2024-03-06T09:15:53;7.50;99.90
66013;DHT22;52783;50.502;8.190;2024-03-06T09:18:19;7.50;99.90
66013;DHT22;52783;50.502;8.190;2024-03-06T09:20:44;7.70;99.90
66013;DHT22;52783;50.502;8.190;2024-03-06T09:23:10;7.80;99.90
66013;DHT22;52783;50.502;8.190;2024-03-06T09:25:36;8.00;99.90
66013;DHT22;52783;50.502;8.190;2024-03-06T09:28:01;8.10;99.90
66013;DHT22;52783;50.502;8.190;2024-03-06T09:30:30;8.10;99.90
66013;DHT22;52783;50.502;8.190;2024-03-06T09:32:55;8.10;99.90
66013;DHT22;52783;50.502;8.190;2024-03-06T09:35:21;8.10;99.90
66013;DHT22;52783;50.502;8.190;2024-03-06T09:37:46;8.40;99.90
66013;DHT22;52783;50.502;8.190;2024-03-06T09:40:20;8.60;99.90
66013;DHT22;52783;50.502;8.190;2024-03-06T09:42:45;8.60;99.90
66013;DHT22;52783;50.502;8.190;2024-03-06T09:45:11;8.80;99.90
66013;DHT22;52783;50.502;8.190;2024-03-06T09:47:37;9.30;99.90
66013;DHT22;52783;50.502;8.190;2024-03-06T09:50:05;9.40;99.90
66013;DHT22;52783;50.502;8.190;2024-03-06T09:52:34;9.60;99.90
66013;DHT22;52783;50.502;8.190;2024-03-06T09:55:01;9.40;99.90
66013;DHT22;52783;50.502;8.190;2024-03-06T09:57:28;8.90;99.90
66013;DHT22;52783;50.502;8.190;2024-03-06T09:59:53;8.60;99.90
66013;DHT22;52783;50.502;8.190;2024-03-06T10:02:36;8.90;99.90
66013;DHT22;52783;50.502;8.190;2024-03-06T10:05:03;9.10;99.90
66013;DHT22;52783;50.502;8.190;2024-03-06T10:07:29;9.30;99.90
66013;DHT22;52783;50.502;8.190;2024-03-06T10:09:55;9.70;99.90
66013;DHT22;52783;50.502;8.190;2024-03-06T10:12:21;9.40;99.90
66013;DHT22;52783;50.502;8.190;2024-03-06T10:14:50;9.30;99.90
66013;DHT22;52783;50.502;8.190;2024-03-06T10:17:19;9.30;99.90
66013;DHT22;52783;50.502;8.190;2024-03-06T10:19:48;9.50;99.90
66013;DHT22;52783;50.502;8.190;2024-03-06T10:22:17;9.60;99.90
66013;DHT22;52783;50.502;8.190;2024-03-06T10:24:42;9.90;99.90
66013;DHT22;52783;50.502;8.190;2024-03-06T10:27:15;10.20;99.90
66013;DHT22;52783;50.502;8.190;2024-03-06T10:29:41;10.10;99.90
66013;DHT22;52783;50.502;8.190;2024-03-06T10:32:07;9.80;99.90
66013;DHT22;52783;50.502;8.190;2024-03-06T10:34:33;9.80;99.90
66013;DHT22;52783;50.502;8.190;2024-03-06T10:37:01;9.90;99.90
66013;DHT22;52783;50.502;8.190;2024-03-06T10:39:30;9.80;99.90
66013;DHT22;52783;50.502;8.190;2024-03-06T10:41:57;9.80;99.90
66013;DHT22;52783;50.502;8.190;2024-03-06T10:44:24;9.40;99.90
66013;DHT22;52783;50.502;8.190;2024-03-06T10:47:01;9.80;99.90
66013;DHT22;52783;50.502;8.190;2024-03-06T10:49:28;9.90;99.90
66013;DHT22;52783;50.502;8.190;2024-03-06T10:52:02;10.00;99.90
66013;DHT22;52783;50.502;8.190;2024-03-06T10:54:30;10.10;99.90
66013;DHT22;52783;50.502;8.190;2024-03-06T10:56:57;9.90;99.90
66013;DHT22;52783;50.502;8.190;2024-03-06T10:59:27;9.30;99.90
66013;DHT22;52783;50.502;8.190;2024-03-06T11:01:57;9.90;99.90
66013;DHT22;52783;50.502;8.190;2024-03-06T11:04:25;10.20;99.90
66013;DHT22;52783;50.502;8.190;2024-03-06T11:06:57;10.10;99.90
66013;DHT22;52783;50.502;8.190;2024-03-06T11:09:25;10.30;99.90
66013;DHT22;52783;50.502;8.190;2024-03-06T11:11:53;10.00;99.90
66013;DHT22;52783;50.502;8.190;2024-03-06T11:14:21;9.80;99.90
66013;DHT22;52783;50.502;8.190;2024-03-06T11:17:04;9.60;99.90
66013;DHT22;52783;50.502;8.190;2024-03-06T11:19:31;9.70;99.90
66013;DHT22;52783;50.502;8.190;2024-03-06T11:21:57;10.10;99.90
66013;DHT22;52783;50.502;8.190;2024-03-06T11:24:24;9.90;99.90
66013;DHT22;52783;50.502;8.190;2024-03-06T11:29:24;9.90;99.90
66013;DHT22;52783;50.502;8.190;2024-03-06T11:32:09;10.10;99.90
66013;DHT22;52783;50.502;8.190;2024-03-06T11:34:37;9.90;99.90
66013;DHT22;52783;50.502;8.190;2024-03-06T11:37:04;10.10;99.90
66013;DHT22;52783;50.502;8.190;2024-03-06T11:39:36;10.00;99.90
66013;DHT22;52783;50.502;8.190;2024-03-06T11:42:02;10.00;99.90
66013;DHT22;52783;50.502;8.190;2024-03-06T11:44:28;9.90;99.90
66013;DHT22;52783;50.502;8.190;2024-03-06T11:47:04;9.70;99.90
66013;DHT22;52783;50.502;8.190;2024-03-06T11:49:31;10.00;99.90
66013;DHT22;52783;50.502;8.190;2024-03-06T11:52:09;10.20;99.90
66013;DHT22;52783;50.502;8.190;2024-03-06T11:54:35;10.40;99.90
66013;DHT22;52783;50.502;8.190;2024-03-06T11:57:03;10.30;99.90
66013;DHT22;52783;50.502;8.190;2024-03-06T11:59:30;10.50;99.90
66013;DHT22;52783;50.502;8.190;2024-03-06T12:01:58;10.90;99.90
66013;DHT22;52783;50.502;8.190;2024-03-06T12:04:27;10.70;99.90
66013;DHT22;52783;50.502;8.190;2024-03-06T12:06:57;11.00;99.90
66013;DHT22;52783;50.502;8.190;2024-03-06T12:09:23;11.10;99.90
66013;DHT22;52783;50.502;8.190;2024-03-06T12:11:48;11.20;99.90
66013;DHT22;52783;50.502;8.190;2024-03-06T12:14:19;10.90;99.90
66013;DHT22;52783;50.502;8.190;2024-03-06T12:16:55;10.70;99.90
66013;DHT22;52783;50.502;8.190;2024-03-06T12:19:21;10.80;99.90
66013;DHT22;52783;50.502;8.190;2024-03-06T12:21:48;11.10;99.90
66013;DHT22;52783;50.502;8.190;2024-03-06T12:24:16;11.00;99.90
66013;DHT22;52783;50.502;8.190;2024-03-06T12:26:44;11.20;99.90
66013;DHT22;52783;50.502;8.190;2024-03-06T12:29:10;11.10;99.90
66013;DHT22;52783;50.502;8.190;2024-03-06T12:31:38;10.70;99.90
66013;DHT22;52783;50.502;8.190;2024-03-06T12:34:05;10.60;99.90
66013;DHT22;52783;50.502;8.190;2024-03-06T12:36:31;10.90;99.90
66013;DHT22;52783;50.502;8.190;2024-03-06T12:39:01;11.20;99.90
66013;DHT22;52783;50.502;8.190;2024-03-06T12:41:28;11.50;99.90
66013;DHT22;52783;50.502;8.190;2024-03-06T12:43:54;11.50;99.90
66013;DHT22;52783;50.502;8.190;2024-03-06T12:46:21;11.70;99.90
66013;DHT22;52783;50.502;8.190;2024-03-06T12:48:46;11.90;99.90
66013;DHT22;52783;50.502;8.190;2024-03-06T12:51:12;11.80;99.90
66013;DHT22;52783;50.502;8.190;2024-03-06T12:53:37;11.90;99.90
66013;DHT22;52783;50.502;8.190;2024-03-06T12:56:03;11.40;99.90
66013;DHT22;52783;50.502;8.190;2024-03-06T12:58:29;11.50;99.90
66013;DHT22;52783;50.502;8.190;2024-03-06T13:00:57;11.40;99.90
66013;DHT22;52783;50.502;8.190;2024-03-06T13:03:23;11.50;99.90
66013;DHT22;52783;50.502;8.190;2024-03-06T13:05:48;11.40;99.90
66013;DHT22;52783;50.502;8.190;2024-03-06T13:08:14;11.60;99.90
66013;DHT22;52783;50.502;8.190;2024-03-06T13:10:40;11.60;99.90
66013;DHT22;52783;50.502;8.190;2024-03-06T13:13:06;11.40;99.90
66013;DHT22;52783;50.502;8.190;2024-03-06T13:15:34;11.50;99.90
66013;DHT22;52783;50.502;8.190;2024-03-06T13:18:00;11.70;99.90
66013;DHT22;52783;50.502;8.190;2024-03-06T13:20:30;11.90;99.90
66013;DHT22;52783;50.502;8.190;2024-03-06T13:22:55;11.70;99.90
66013;DHT22;52783;50.502;8.190;2024-03-06T13:25:21;11.80;99.90
66013;DHT22;52783;50.502;8.190;2024-03-06T13:27:46;11.90;99.90
66013;DHT22;52783;50.502;8.190;2024-03-06T13:30:12;12.10;99.90
66013;DHT22;52783;50.502;8.190;2024-03-06T13:32:38;12.10;99.90
66013;DHT22;52783;50.502;8.190;2024-03-06T13:35:04;12.10;99.90
66013;DHT22;52783;50.502;8.190;2024-03-06T13:37:32;11.70;99.90
66013;DHT22;52783;50.502;8.190;2024-03-06T13:39:57;11.70;99.90
66013;DHT22;52783;50.502;8.190;2024-03-06T13:42:27;11.50;99.90
66013;DHT22;52783;50.502;8.190;2024-03-06T13:44:52;11.30;99.90
66013;DHT22;52783;50.502;8.190;2024-03-06T13:47:19;11.00;99.90
66013;DHT22;52783;50.502;8.190;2024-03-06T13:49:44;11.00;99.90
66013;DHT22;52783;50.502;8.190;2024-03-06T13:52:10;10.80;99.90
66013;DHT22;52783;50.502;8.190;2024-03-06T13:54:40;10.70;99.90
66013;DHT22;52783;50.502;8.190;2024-03-06T13:57:07;10.70;99.90
66013;DHT22;52783;50.502;8.190;2024-03-06T13:59:34;10.80;99.90
66013;DHT22;52783;50.502;8.190;2024-03-06T14:02:00;10.70;99.90
66013;DHT22;52783;50.502;8.190;2024-03-06T14:04:27;10.80;99.90
66013;DHT22;52783;50.502;8.190;2024-03-06T14:06:53;10.60;99.90
66013;DHT22;52783;50.502;8.190;2024-03-06T14:09:18;10.60;99.90
66013;DHT22;52783;50.502;8.190;2024-03-06T14:11:44;10.50;99.90
66013;DHT22;52783;50.502;8.190;2024-03-06T14:14:10;10.50;99.90
66013;DHT22;52783;50.502;8.190;2024-03-06T14:16:36;10.50;99.90
66013;DHT22;52783;50.502;8.190;2024-03-06T14:19:02;10.50;99.90
66013;DHT22;52783;50.502;8.190;2024-03-06T14:21:30;10.60;99.90
66013;DHT22;52783;50.502;8.190;2024-03-06T14:23:55;10.40;99.90
66013;DHT22;52783;50.502;8.190;2024-03-06T14:26:21;10.60;99.90
66013;DHT22;52783;50.502;8.190;2024-03-06T14:28:46;10.70;99.90
66013;DHT22;52783;50.502;8.190;2024-03-06T14:31:12;10.90;99.90
66013;DHT22;52783;50.502;8.190;2024-03-06T14:33:40;10.70;99.90
66013;DHT22;52783;50.502;8.190;2024-03-06T14:36:05;10.70;99.90
66013;DHT22;52783;50.502;8.190;2024-03-06T14:38:31;10.50;99.90
66013;DHT22;52783;50.502;8.190;2024-03-06T14:40:58;10.50;99.90
66013;DHT22;52783;50.502;8.190;2024-03-06T14:43:24;10.30;99.90
66013;DHT22;52783;50.502;8.190;2024-03-06T14:45:50;10.30;99.90
66013;DHT22;52783;50.502;8.190;2024-03-06T14:48:16;10.40;99.90
66013;DHT22;52783;50.502;8.190;2024-03-06T14:50:41;10.30;99.90
66013;DHT22;52783;50.502;8.190;2024-03-06T14:53:07;10.40;99.90
66013;DHT22;52783;50.502;8.190;2024-03-06T14:55:33;10.30;99.90
66013;DHT22;52783;50.502;8.190;2024-03-06T14:57:59;10.40;99.90
66013;DHT22;52783;50.502;8.190;2024-03-06T15:00:24;10.30;99.90
66013;DHT22;52783;50.502;8.190;2024-03-06T15:02:50;10.50;99.90
66013;DHT22;52783;50.502;8.190;2024-03-06T15:05:15;10.50;99.90
66013;DHT22;52783;50.502;8.190;2024-03-06T15:07:41;10.50;99.90
66013;DHT22;52783;50.502;8.190;2024-03-06T15:10:07;10.60;99.90
66013;DHT22;52783;50.502;8.190;2024-03-06T15:12:37;10.60;99.90
66013;DHT22;52783;50.502;8.190;2024-03-06T15:15:03;10.50;99.90
66013;DHT22;52783;50.502;8.190;2024-03-06T15:17:32;10.30;99.90
66013;DHT22;52783;50.502;8.190;2024-03-06T15:19:58;10.50;99.90
66013;DHT22;52783;50.502;8.190;2024-03-06T15:22:24;10.50;99.90
66013;DHT22;52783;50.502;8.190;2024-03-06T15:24:50;10.40;99.90
66013;DHT22;52783;50.502;8.190;2024-03-06T15:27:16;10.40;99.90
66013;DHT22;52783;50.502;8.190;2024-03-06T15:29:42;10.40;99.90
66013;DHT22;52783;50.502;8.190;2024-03-06T15:32:08;10.40;99.90
66013;DHT22;52783;50.502;8.190;2024-03-06T15:34:35;10.50;99.90
66013;DHT22;52783;50.502;8.190;2024-03-06T15:37:01;10.50;99.90
66013;DHT22;52783;50.502;8.190;2024-03-06T15:39:28;10.30;99.90